Last Friday 5k: 24 November 2000

 Men and women:  Separate Other races:   

Last Friday (shadow) Overall Championship 2000

All runners

Pos arrow Name arrow Time arrow Cat arrow Club arrow Graded arrow Pace arrow
1 1 Paul Stuart-Smith 16:18 V35 Central Park Track C 82.1% 5:15
2 2 Philip Carstairs 16:24 V40 Belgrave Harriers 82.2% 5:17
3 3 K Tilley 16:27 SM South London H n/a 5:18
4 4 D Greenaway 16:33 MU20 Imperial College n/a 5:20
5 5 M Oakes 16:35 V40 Unattached n/a 5:20
6 6 Paul Major 16:41 V35 WG&EL 78.1% 5:22
7 7 R Herries 17:00 SM Hunters Bog Trotters n/a 5:28
8 8 Maria Sharp 17:02 SL Belgrave Harriers n/a 5:29
9 9 M Powell 17:03 SM Reading RR n/a 5:29
10 10 S Nelson 17:05 SM Belgrave Harriers n/a 5:30
11 11 Dave Cox 17:10 V45 WG&EL 82.7% 5:31
12 12 C Martin 17:17 SM Loughton AC n/a 5:34
13 13 J Horsman 17:27 SM Kingfisher Tri n/a 5:37
14 14 Phil York 17:30 V35 ESM 76.0% 5:38
15 15 Dave Boyce 17:31 SM ESM n/a 5:38
16 16 T Kaaker 17:39 SM Unattached n/a 5:41
17 17 Steve Smythe 17:43 V40 Cambridge Harriers 77.2% 5:42
18 18 I Dent 17:44 SM Ranelagh Harriers n/a 5:42
19 19 A McMaster 17:46 V45 Unattached n/a 5:43
20 20 Luis Miguel Da Cruz 17:50 SM Unattached 72.7% 5:44
21 21 Dave Gibson 17:53 V55 AFD 86.9% 5:45
22 22 G Stephens 17:57 SM Sevenoaks AC n/a 5:47
23 23 A Fletcher 17:59 FV35 Dulwich Runners n/a 5:47
24 24 H Long 18:15 SM Unattached n/a 5:52
25 25 A Durrans 18:21 V45 Herne Hill Harriers n/a 5:54
26 26 J Waters 18:22 V50 Unattached n/a 5:55
27 27 Lyndon Collins 18:23 V50 Sevenoaks AC 79.0% 5:55
28 28 D Patterson 18:24 SM Imperial College n/a 5:55
29 29 N Rumsey 18:27 SM Unattached n/a 5:56
30 30 J Cox-Nichol 18:34 SM RRC n/a 5:58
31 31 S Mulvee 18:37 MU20 Imperial College n/a 5:59
32 32 John Griffin 18:49 V35 Tri London 71.1% 6:03
33 33 R Henderson 18:53 SM Unattached n/a 6:05
34 34 R Spedding 18:56 SM Dulwich Runners n/a 6:06
35 35 Neil Herbert 18:58 SM Epsom Oddballs 68.4% 6:06
36 36 R Knell 18:59 SM Kingfisher Tri n/a 6:07
37 37 Edward Donald 19:12 SM Unattached 67.6% 6:11
38 38 John Shaw 19:12 V40 Serpentine 70.7% 6:11
39 39 M Phillips 19:22 V40 Leighton Buzzard AC 71.6% 6:14
40 40 M Morris 19:26 SM Tri London n/a 6:15
41 41 Oliver Roberts 19:27 SM Runners World 66.7% 6:16
42 42 John Mccooey 19:29 V35 London Irish AC 68.7% 6:16
43 43 Paul Tabor 19:30 V40 Sevenoaks AC 69.1% 6:17
44 44 Roger Mansell 19:32 V50 Trent Park RC 75.0% 6:17
45 45 Russell Secker 19:33 V45 RRC n/a 6:17
46 46 Michael Shilling 19:34 V40 Sheen Shufflers 70.9% 6:18
47 47 Geoffrey Kitchener 19:41 V50 Sevenoaks AC 74.4% 6:20
48 48 M Ringer 19:41 V40 Unattached n/a 6:20
49 49 R Kibraya 19:42 SM Unattached n/a 6:20
50 50 J Ritchie 19:46 SM Unattached n/a 6:22
51 51 S Dawson 19:50 FV35 Herne Hill Harriers n/a 6:23
52 52 N Morgan 19:51 SM Unattached n/a 6:23
53 53 S Chapman 19:54 FV35 WG&EL n/a 6:24
54 54 D Wickes 19:54 SM Unattached n/a 6:24
55 55 P Deadman 20:00 V55 Orion Harriers n/a 6:26
56 56 Alan Davidson 20:01 V50 Ranelagh Harriers 74.4% 6:26
57 57 Emma Drake 20:02 SL Serpentine 71.9% 6:27
58 58 A Phillips 20:02 V40 Harvel HHH n/a 6:27
59 59 S Nicholls 20:06 SM Unattached n/a 6:28
60 60 M Knock 20:07 V40 Unattached n/a 6:28
61 61 A McEachen 20:12 V35 Unattached 65.4% 6:30
62 62 R Branscombe 20:14 SM Unattached n/a 6:31
63 63 Fraser Johnson 20:14 SM Serpentine 64.1% 6:31
64 64 K Chafer 20:20 SM Unattached n/a 6:33
65 65 P Bird 20:26 V40 Unattached n/a 6:35
66 66 J Clark 20:31 SM Unattached n/a 6:36
67 67 A Thompson 20:34 SM Durham AC n/a 6:37
68 68 Tom Everitt 20:40 V65 Eton Manor AC 81.4% 6:39
69 69 M Roberts 20:43 SM Kingston & Poly n/a 6:40
70 70 D Austin 20:44 SM Unattached n/a 6:40
71 71 M Truran 20:47 V40 Unattached n/a 6:41
72 72 J Brittain 20:52 SM Unattached n/a 6:43
73 73 N Troop 20:52 V40 Runners World n/a 6:43
74 74 R Higgs 20:54 V65 Barnet & District n/a 6:44
75 75 M Perrett 21:00 SM Unattached n/a 6:45
76 76 S Sangvik 21:02 FV40 Sevenoaks AC n/a 6:46
77 77 Dave Case 21:24 V65 Vets AC 78.6% 6:53
78 78 K Bowman 21:40 SM Unattached n/a 6:58
79 79 C Rigler 21:42 V40 Wootton RR n/a 6:59
80 80 Pete Warren 21:44 V60 Ranelagh Harriers 72.9% 7:00
81 81 N Melville 21:47 V40 Lothian Runners n/a 7:01
82 82 Derek Thomas 21:50 V70 Cambridge Harriers n/a 7:02
83 83 R Murdoch 21:54 V40 Unattached n/a 7:03
84 84 Mark Mulvenna 21:55 V35 Unattached 60.7% 7:03
85 85 S Holmes 21:55 SM Unattached n/a 7:03
86 86 M Shiels 22:01 V60 BH & B Harriers n/a 7:05
87 87 Leondina Lowdermilk 22:04 SL Unattached 65.2% 7:06
88 88 P Huzen 22:07 SM South Lon Orienteers n/a 7:07
89 89 D Spragg 22:12 SM Unattached n/a 7:09
90 90 Gehan Talwatte 22:17 V35 Unattached 58.8% 7:10
91 91 Martin Worsley 22:25 SM Serpentine 57.9% 7:13
92 92 T Drew 22:25 SM Unattached n/a 7:13
93 93 Mark Ahearne 22:26 V35 Unattached 58.4% 7:13
94 94 C Manning 22:26 SM Unattached n/a 7:13
95 95 Rob Burnand 22:29 V40 Unattached 60.8% 7:14
96 96 S Harakis 22:36 SM Unattached n/a 7:16
97 97 R Stevenson 22:36 SM Unattached n/a 7:16
98 98 M Harris 22:38 SM Unattached n/a 7:17
99 99 P Bennett 22:39 V40 Unattached n/a 7:17
100 100 T Yates 22:44 SM Unattached n/a 7:19
101 101 Fergus Dalton 22:44 V35 Unattached 57.3% 7:19
102 102 Michael Rowland 22:48 V55 Ranelagh Harriers 66.4% 7:20
103 103 D Bailey 22:50 V40 Unattached n/a 7:21
104 104 S Walsh 22:55 FV45 Cambridge Harriers n/a 7:22
105 105 W Vankempen 22:55 SM Unattached n/a 7:22
106 106 Tad Lancucki 23:01 V50 Vets AC 63.6% 7:24
107 107 M Povey 23:10 FV45 Unattached n/a 7:27
108 108 Cliff Collins 23:12 V60 London Irish AC 71.0% 7:28
109 109 K Davis 23:32 SM Unattached n/a 7:34
110 110 R Gaygen 23:32 SM Unattached n/a 7:34
111 111 Peter Torre 23:39 V55 Barnet & District 65.7% 7:37
112 112 John Hanscomb 23:55 V65 Ranelagh Harriers 69.6% 7:42
113 113 Alistair Jackson 24:09 V55 Vets AC 63.8% 7:46
114 114 D Plume 24:12 SM Unattached n/a 7:47
115 115 P Marples 24:12 SM Kingston & Poly n/a 7:47
116 116 Richard Whiting 24:17 V50 Herts & Ware 59.8% 7:49
117 117 P Mumford 24:22 SM Unattached n/a 7:50
118 118 G Thomas 24:24 SM Unattached n/a 7:51
119 119 J Watson 24:31 SL Marshall Street n/a 7:53
120 120 Bob Davidson 24:32 V65 Serpentine 71.0% 7:54
121 121 T Wilcox 24:33 SM Unattached n/a 7:54
122 122 N Dark 24:35 SM Unattached n/a 7:55
123 123 D Lewis 24:35 V40 Unattached n/a 7:55
124 124 Jon Knox 25:18 V35 Serpentine 52.2% 8:08
125 125 D Kelly 25:26 V40 Unattached n/a 8:11
126 126 Raymond Hoyle 25:29 V55 Watford Harriers 61.0% 8:12
127 127 T Pillinger 25:39 SM Unattached n/a 8:15
128 128 Michael McCarthy 25:44 V35 Sevenoaks AC 50.6% 8:17
129 129 P Stacey 25:44 V40 Unattached 53.5% 8:17
130 130 E Abraham 25:48 SL Unattached n/a 8:18
131 131 Jerry White 26:06 SM Unattached 49.7% 8:24
132 132 T Higgins 26:08 SM Unattached n/a 8:25
133 133 Joel Brassington 26:18 V35 Unattached 49.9% 8:28
134 134 T McGuire 26:26 V40 Unattached n/a 8:30
135 135 T Woods 26:26 V40 Unattached n/a 8:30
136 136 K Sheehey 27:08 SL Unattached n/a 8:44
137 137 Z Caster 27:08 SL Unattached n/a 8:44
138 138 J Harvey 27:08 SM Unattached n/a 8:44
139 139 L Kendell 27:16 FV35 Unattached n/a 8:46
140 140 K McCann 27:50 FV35 Unattached n/a 8:57
141 141 J Hughes 27:51 FV35 Unattached n/a 8:58
142 142 G Stickley 27:55 SM Unattached n/a 8:59
143 143 M Majerus 29:32 FV40 Unattached n/a 9:30
144 144 R Davies 30:24 MU17 Unattached n/a 9:47
145 145 E Stocker 30:35 FV40 Unattached n/a 9:51
146 146 G Craig 30:42 V55 Kingston & Poly n/a 9:53
147 147 S McTaggart 31:19 SM Unattached n/a 10:05
148 148 C Davies 31:19 FV35 Unattached n/a 10:05
149 149 J Aspey 31:34 Sl Unattached n/a 10:09
150 150 J Camlibel 31:41 SL Unattached n/a 10:12
151 151 E Hurley 31:41 SL Unattached n/a 10:12
152 152 A Stocker 37:40 MU17 Unattached n/a 12:07

Report

Well the limit has been reached with 150 entrants and 2 late starters making it 152 finishers. The largest field in the history of the with thrown in a magnificent ladies record (for the new course) of 17.02 in 9th place overall by Maria Sharp of Belgrave Harriers and a new lady vets Record of 17.59 by Alison Fletcher of Dulwich Runners/Runner


Chart 58496e15bc0d9

Result queries

If you have any queries about these results please email lfotm5k@serpentine.org.uk